createdAt,value
2017-12-19T00:01:14.051Z,36.92
2017-12-19T00:03:39.880Z,37.47
2017-12-19T00:06:05.703Z,37.57
2017-12-19T00:08:31.540Z,37.27
2017-12-19T00:10:57.386Z,37.00
2017-12-19T00:13:23.199Z,36.95
2017-12-19T00:15:49.959Z,36.89
2017-12-19T00:18:15.836Z,37.60
2017-12-19T00:20:41.646Z,37.92
2017-12-19T00:23:07.466Z,37.82
2017-12-19T00:25:33.330Z,37.62
2017-12-19T00:27:59.139Z,37.39
2017-12-19T00:30:24.955Z,37.43
2017-12-19T00:32:50.763Z,37.47
2017-12-19T00:35:16.607Z,37.95
2017-12-19T00:37:43.258Z,37.87
2017-12-19T00:40:09.878Z,37.71
2017-12-19T00:42:35.695Z,37.64
2017-12-19T00:45:01.545Z,37.54
2017-12-19T00:47:27.349Z,37.50
2017-12-19T00:49:53.154Z,38.04
2017-12-19T00:52:18.971Z,38.08
2017-12-19T00:54:44.774Z,37.58
2017-12-19T00:57:10.615Z,37.69
2017-12-19T00:59:36.435Z,37.70
2017-12-19T01:02:02.474Z,37.81
2017-12-19T01:04:28.288Z,37.88
2017-12-19T01:06:54.143Z,37.85
2017-12-19T01:09:19.950Z,37.71
2017-12-19T01:11:45.765Z,37.51
2017-12-19T01:14:11.579Z,37.54
2017-12-19T01:16:38.161Z,37.75
2017-12-19T01:19:04.965Z,37.89
2017-12-19T01:21:31.699Z,37.60
2017-12-19T01:23:57.554Z,37.31
2017-12-19T01:26:23.362Z,37.94
2017-12-19T01:28:49.224Z,37.92
2017-12-19T01:31:17.147Z,37.78
2017-12-19T01:33:42.954Z,37.52
2017-12-19T01:36:09.606Z,37.15
2017-12-19T01:38:35.414Z,37.08
2017-12-19T01:41:01.262Z,36.92
2017-12-19T01:43:27.083Z,36.68
2017-12-19T01:45:52.928Z,37.49
2017-12-19T01:48:19.777Z,37.53
2017-12-19T01:50:46.638Z,37.08
2017-12-19T01:53:13.260Z,36.93
2017-12-19T01:55:39.119Z,36.87
2017-12-19T01:58:04.928Z,37.02
2017-12-19T02:00:30.786Z,37.74
2017-12-19T02:02:57.467Z,37.72
2017-12-19T02:05:24.198Z,37.56
2017-12-19T02:07:50.042Z,37.34
2017-12-19T02:10:15.889Z,37.36
2017-12-19T02:12:42.551Z,37.46
2017-12-19T02:15:09.358Z,37.78
